sensor_id;sensor_type;location;lat;lon;timestamp;temperature;humidity
2497;DHT22;1259;48.306;14.374;2022-07-23T00:00:11;24.90;97.90
2497;DHT22;1259;48.306;14.374;2022-07-23T00:02:38;24.90;97.30
2497;DHT22;1259;48.306;14.374;2022-07-23T00:05:05;24.70;97.50
2497;DHT22;1259;48.306;14.374;2022-07-23T00:07:33;24.70;97.40
2497;DHT22;1259;48.306;14.374;2022-07-23T00:10:00;24.70;97.50
2497;DHT22;1259;48.306;14.374;2022-07-23T00:12:27;24.60;97.10
2497;DHT22;1259;48.306;14.374;2022-07-23T00:14:54;24.70;97.00
2497;DHT22;1259;48.306;14.374;2022-07-23T00:17:21;24.70;96.70
2497;DHT22;1259;48.306;14.374;2022-07-23T00:19:48;24.70;96.80
2497;DHT22;1259;48.306;14.374;2022-07-23T00:22:15;24.80;96.70
2497;DHT22;1259;48.306;14.374;2022-07-23T00:24:43;24.90;95.70
2497;DHT22;1259;48.306;14.374;2022-07-23T00:27:10;24.90;94.70
2497;DHT22;1259;48.306;14.374;2022-07-23T00:29:37;25.00;94.40
2497;DHT22;1259;48.306;14.374;2022-07-23T00:32:05;25.00;94.00
2497;DHT22;1259;48.306;14.374;2022-07-23T00:34:32;25.10;93.90
2497;DHT22;1259;48.306;14.374;2022-07-23T00:36:59;25.20;94.00
2497;DHT22;1259;48.306;14.374;2022-07-23T00:39:26;25.20;94.20
2497;DHT22;1259;48.306;14.374;2022-07-23T00:41:54;25.20;95.60
2497;DHT22;1259;48.306;14.374;2022-07-23T00:44:22;25.10;95.80
2497;DHT22;1259;48.306;14.374;2022-07-23T00:46:52;25.00;96.40
2497;DHT22;1259;48.306;14.374;2022-07-23T00:49:20;24.70;97.00
2497;DHT22;1259;48.306;14.374;2022-07-23T00:51:47;24.70;97.70
2497;DHT22;1259;48.306;14.374;2022-07-23T00:54:14;24.50;98.10
2497;DHT22;1259;48.306;14.374;2022-07-23T00:56:43;24.30;98.50
2497;DHT22;1259;48.306;14.374;2022-07-23T00:59:11;24.30;98.90
2497;DHT22;1259;48.306;14.374;2022-07-23T01:01:39;24.20;99.20
2497;DHT22;1259;48.306;14.374;2022-07-23T01:04:07;24.20;99.50
2497;DHT22;1259;48.306;14.374;2022-07-23T01:06:36;24.20;99.70
2497;DHT22;1259;48.306;14.374;2022-07-23T01:09:04;24.20;99.50
2497;DHT22;1259;48.306;14.374;2022-07-23T01:11:32;24.20;99.90
2497;DHT22;1259;48.306;14.374;2022-07-23T01:14:07;24.20;99.70
2497;DHT22;1259;48.306;14.374;2022-07-23T01:16:35;24.30;99.90
2497;DHT22;1259;48.306;14.374;2022-07-23T01:19:02;24.20;99.90
2497;DHT22;1259;48.306;14.374;2022-07-23T01:21:33;24.30;99.90
2497;DHT22;1259;48.306;14.374;2022-07-23T01:24:02;24.30;99.90
2497;DHT22;1259;48.306;14.374;2022-07-23T01:26:29;24.30;99.90
2497;DHT22;1259;48.306;14.374;2022-07-23T01:28:56;23.90;99.90
2497;DHT22;1259;48.306;14.374;2022-07-23T01:31:23;24.10;99.90
2497;DHT22;1259;48.306;14.374;2022-07-23T01:33:50;24.10;99.90
2497;DHT22;1259;48.306;14.374;2022-07-23T01:36:17;24.20;99.90
2497;DHT22;1259;48.306;14.374;2022-07-23T01:38:44;24.10;99.90
2497;DHT22;1259;48.306;14.374;2022-07-23T01:41:12;23.90;99.90
2497;DHT22;1259;48.306;14.374;2022-07-23T01:43:39;24.10;99.90
2497;DHT22;1259;48.306;14.374;2022-07-23T01:46:06;24.20;99.90
2497;DHT22;1259;48.306;14.374;2022-07-23T01:48:33;24.30;99.60
2497;DHT22;1259;48.306;14.374;2022-07-23T01:51:00;24.30;99.90
2497;DHT22;1259;48.306;14.374;2022-07-23T01:53:27;24.10;99.90
2497;DHT22;1259;48.306;14.374;2022-07-23T01:55:56;24.10;99.90
2497;DHT22;1259;48.306;14.374;2022-07-23T01:58:25;24.10;99.90
2497;DHT22;1259;48.306;14.374;2022-07-23T02:00:52;24.10;99.90
2497;DHT22;1259;48.306;14.374;2022-07-23T02:03:20;24.30;99.90
2497;DHT22;1259;48.306;14.374;2022-07-23T02:05:47;24.20;99.90
2497;DHT22;1259;48.306;14.374;2022-07-23T02:08:14;24.30;99.90
2497;DHT22;1259;48.306;14.374;2022-07-23T02:10:40;24.30;99.90
2497;DHT22;1259;48.306;14.374;2022-07-23T02:13:07;24.20;99.90
2497;DHT22;1259;48.306;14.374;2022-07-23T02:15:36;24.10;99.90
2497;DHT22;1259;48.306;14.374;2022-07-23T02:18:03;24.10;99.90
2497;DHT22;1259;48.306;14.374;2022-07-23T02:20:30;24.10;99.90
2497;DHT22;1259;48.306;14.374;2022-07-23T02:22:57;24.20;99.90
2497;DHT22;1259;48.306;14.374;2022-07-23T02:25:23;24.20;99.90
2497;DHT22;1259;48.306;14.374;2022-07-23T02:27:50;24.30;99.90
2497;DHT22;1259;48.306;14.374;2022-07-23T02:30:17;24.40;99.90
2497;DHT22;1259;48.306;14.374;2022-07-23T02:32:46;24.30;99.90
2497;DHT22;1259;48.306;14.374;2022-07-23T02:35:12;24.30;99.90
2497;DHT22;1259;48.306;14.374;2022-07-23T02:37:39;24.30;99.90
2497;DHT22;1259;48.306;14.374;2022-07-23T02:40:07;24.30;99.90
2497;DHT22;1259;48.306;14.374;2022-07-23T02:42:34;24.30;99.90
2497;DHT22;1259;48.306;14.374;2022-07-23T02:45:01;24.30;99.90
2497;DHT22;1259;48.306;14.374;2022-07-23T02:47:28;24.20;99.90
2497;DHT22;1259;48.306;14.374;2022-07-23T02:49:58;24.30;99.90
2497;DHT22;1259;48.306;14.374;2022-07-23T02:52:25;24.30;99.90
2497;DHT22;1259;48.306;14.374;2022-07-23T02:54:52;24.40;99.90
2497;DHT22;1259;48.306;14.374;2022-07-23T02:57:19;24.40;99.90
2497;DHT22;1259;48.306;14.374;2022-07-23T02:59:46;24.50;99.90
2497;DHT22;1259;48.306;14.374;2022-07-23T03:02:13;24.50;99.90
2497;DHT22;1259;48.306;14.374;2022-07-23T03:04:40;24.50;99.90
2497;DHT22;1259;48.306;14.374;2022-07-23T03:07:09;24.50;99.90
2497;DHT22;1259;48.306;14.374;2022-07-23T03:09:36;24.60;99.90
2497;DHT22;1259;48.306;14.374;2022-07-23T03:12:03;24.60;99.90
2497;DHT22;1259;48.306;14.374;2022-07-23T03:14:30;24.70;99.90
2497;DHT22;1259;48.306;14.374;2022-07-23T03:16:57;24.70;99.90
2497;DHT22;1259;48.306;14.374;2022-07-23T03:19:25;24.50;99.90
2497;DHT22;1259;48.306;14.374;2022-07-23T03:21:52;24.40;99.90
2497;DHT22;1259;48.306;14.374;2022-07-23T03:24:20;24.30;99.90
2497;DHT22;1259;48.306;14.374;2022-07-23T03:26:49;24.30;99.90
2497;DHT22;1259;48.306;14.374;2022-07-23T03:29:16;24.30;99.90
2497;DHT22;1259;48.306;14.374;2022-07-23T03:31:44;24.30;99.90
2497;DHT22;1259;48.306;14.374;2022-07-23T03:34:10;24.40;99.90
2497;DHT22;1259;48.306;14.374;2022-07-23T03:36:37;24.30;99.90
2497;DHT22;1259;48.306;14.374;2022-07-23T03:39:04;24.30;99.90
2497;DHT22;1259;48.306;14.374;2022-07-23T03:41:32;24.30;99.90
2497;DHT22;1259;48.306;14.374;2022-07-23T03:43:59;24.20;99.90
2497;DHT22;1259;48.306;14.374;2022-07-23T03:46:26;24.10;99.90
2497;DHT22;1259;48.306;14.374;2022-07-23T03:48:53;24.00;99.90
2497;DHT22;1259;48.306;14.374;2022-07-23T03:51:20;23.90;99.90
2497;DHT22;1259;48.306;14.374;2022-07-23T03:53:47;23.90;99.90
2497;DHT22;1259;48.306;14.374;2022-07-23T03:56:14;23.90;99.90
2497;DHT22;1259;48.306;14.374;2022-07-23T03:58:42;23.90;99.90
2497;DHT22;1259;48.306;14.374;2022-07-23T04:01:10;23.80;99.90
2497;DHT22;1259;48.306;14.374;2022-07-23T04:03:37;23.70;99.90
2497;DHT22;1259;48.306;14.374;2022-07-23T04:06:05;23.60;99.90
2497;DHT22;1259;48.306;14.374;2022-07-23T04:08:32;23.40;99.90
2497;DHT22;1259;48.306;14.374;2022-07-23T04:10:59;23.50;99.90
2497;DHT22;1259;48.306;14.374;2022-07-23T04:13:26;23.40;99.90
2497;DHT22;1259;48.306;14.374;2022-07-23T04:15:54;23.40;99.90
2497;DHT22;1259;48.306;14.374;2022-07-23T04:18:21;23.50;99.90
2497;DHT22;1259;48.306;14.374;2022-07-23T04:20:50;23.50;99.90
2497;DHT22;1259;48.306;14.374;2022-07-23T04:23:17;23.50;99.90
2497;DHT22;1259;48.306;14.374;2022-07-23T04:25:44;23.50;99.90
2497;DHT22;1259;48.306;14.374;2022-07-23T04:28:11;23.40;99.90
2497;DHT22;1259;48.306;14.374;2022-07-23T04:30:38;23.40;99.90
2497;DHT22;1259;48.306;14.374;2022-07-23T04:33:07;23.40;99.90
2497;DHT22;1259;48.306;14.374;2022-07-23T04:35:34;23.40;99.90
2497;DHT22;1259;48.306;14.374;2022-07-23T04:38:02;23.40;99.90
2497;DHT22;1259;48.306;14.374;2022-07-23T04:40:29;23.50;99.90
2497;DHT22;1259;48.306;14.374;2022-07-23T04:42:56;23.50;99.90
2497;DHT22;1259;48.306;14.374;2022-07-23T04:45:23;23.60;99.90
2497;DHT22;1259;48.306;14.374;2022-07-23T04:47:50;23.70;99.90
2497;DHT22;1259;48.306;14.374;2022-07-23T04:50:19;23.60;99.90
2497;DHT22;1259;48.306;14.374;2022-07-23T04:52:47;23.70;99.90
2497;DHT22;1259;48.306;14.374;2022-07-23T04:55:14;23.60;99.90
2497;DHT22;1259;48.306;14.374;2022-07-23T04:57:41;23.60;99.90
2497;DHT22;1259;48.306;14.374;2022-07-23T05:00:09;23.50;99.90
2497;DHT22;1259;48.306;14.374;2022-07-23T05:02:36;23.60;99.90
2497;DHT22;1259;48.306;14.374;2022-07-23T05:05:04;23.50;99.90
2497;DHT22;1259;48.306;14.374;2022-07-23T05:07:33;23.60;99.90
2497;DHT22;1259;48.306;14.374;2022-07-23T05:09:59;23.60;99.90
2497;DHT22;1259;48.306;14.374;2022-07-23T05:12:26;23.60;99.90
2497;DHT22;1259;48.306;14.374;2022-07-23T05:14:53;23.70;99.90
2497;DHT22;1259;48.306;14.374;2022-07-23T05:17:20;23.80;99.90
2497;DHT22;1259;48.306;14.374;2022-07-23T05:19:47;23.80;99.90
2497;DHT22;1259;48.306;14.374;2022-07-23T05:22:14;23.90;99.90
2497;DHT22;1259;48.306;14.374;2022-07-23T05:24:42;23.90;99.90
2497;DHT22;1259;48.306;14.374;2022-07-23T05:27:09;23.90;99.90
2497;DHT22;1259;48.306;14.374;2022-07-23T05:29:36;24.10;99.90
2497;DHT22;1259;48.306;14.374;2022-07-23T05:32:04;24.10;99.90
2497;DHT22;1259;48.306;14.374;2022-07-23T05:34:31;24.10;99.90
2497;DHT22;1259;48.306;14.374;2022-07-23T05:36:58;24.20;99.90
2497;DHT22;1259;48.306;14.374;2022-07-23T05:39:24;24.40;99.90
2497;DHT22;1259;48.306;14.374;2022-07-23T05:41:53;24.30;99.90
2497;DHT22;1259;48.306;14.374;2022-07-23T05:44:19;24.30;99.90
2497;DHT22;1259;48.306;14.374;2022-07-23T05:46:47;24.40;99.90
2497;DHT22;1259;48.306;14.374;2022-07-23T05:49:14;24.30;99.90
2497;DHT22;1259;48.306;14.374;2022-07-23T05:51:41;24.40;99.90
2497;DHT22;1259;48.306;14.374;2022-07-23T05:54:08;24.50;99.90
2497;DHT22;1259;48.306;14.374;2022-07-23T05:56:35;24.40;99.90
2497;DHT22;1259;48.306;14.374;2022-07-23T05:59:03;24.60;99.90
2497;DHT22;1259;48.306;14.374;2022-07-23T06:01:31;24.50;99.90
2497;DHT22;1259;48.306;14.374;2022-07-23T06:03:58;24.40;99.90
2497;DHT22;1259;48.306;14.374;2022-07-23T06:06:25;24.40;99.90
2497;DHT22;1259;48.306;14.374;2022-07-23T06:08:52;24.40;99.90
2497;DHT22;1259;48.306;14.374;2022-07-23T06:11:21;24.30;99.90
2497;DHT22;1259;48.306;14.374;2022-07-23T06:13:48;24.40;99.90
2497;DHT22;1259;48.306;14.374;2022-07-23T06:16:16;24.40;99.90
2497;DHT22;1259;48.306;14.374;2022-07-23T06:18:43;24.50;99.90
2497;DHT22;1259;48.306;14.374;2022-07-23T06:21:10;24.60;99.90
2497;DHT22;1259;48.306;14.374;2022-07-23T06:23:37;24.90;99.90
2497;DHT22;1259;48.306;14.374;2022-07-23T06:26:05;24.90;99.90
2497;DHT22;1259;48.306;14.374;2022-07-23T06:28:32;25.00;99.90
2497;DHT22;1259;48.306;14.374;2022-07-23T06:30:59;25.30;99.90
2497;DHT22;1259;48.306;14.374;2022-07-23T06:33:29;25.60;99.90
2497;DHT22;1259;48.306;14.374;2022-07-23T06:35:56;25.60;99.90
2497;DHT22;1259;48.306;14.374;2022-07-23T06:38:23;25.80;99.90
2497;DHT22;1259;48.306;14.374;2022-07-23T06:40:49;25.60;99.90
2497;DHT22;1259;48.306;14.374;2022-07-23T06:43:16;25.60;99.90
2497;DHT22;1259;48.306;14.374;2022-07-23T06:45:43;25.40;99.90
2497;DHT22;1259;48.306;14.374;2022-07-23T06:48:10;25.40;99.90
2497;DHT22;1259;48.306;14.374;2022-07-23T06:50:38;25.50;99.90
2497;DHT22;1259;48.306;14.374;2022-07-23T06:53:05;25.50;99.90
2497;DHT22;1259;48.306;14.374;2022-07-23T06:55:32;25.80;99.90
2497;DHT22;1259;48.306;14.374;2022-07-23T06:58:03;25.90;99.90
2497;DHT22;1259;48.306;14.374;2022-07-23T07:00:30;25.70;99.90
2497;DHT22;1259;48.306;14.374;2022-07-23T07:02:58;25.60;99.90
2497;DHT22;1259;48.306;14.374;2022-07-23T07:05:25;25.60;99.90
2497;DHT22;1259;48.306;14.374;2022-07-23T07:07:54;25.70;99.90
2497;DHT22;1259;48.306;14.374;2022-07-23T07:10:21;25.60;99.90
2497;DHT22;1259;48.306;14.374;2022-07-23T07:12:48;25.80;99.90
2497;DHT22;1259;48.306;14.374;2022-07-23T07:15:15;25.90;99.90
2497;DHT22;1259;48.306;14.374;2022-07-23T07:17:42;25.80;99.90
2497;DHT22;1259;48.306;14.374;2022-07-23T07:20:10;25.90;99.90
2497;DHT22;1259;48.306;14.374;2022-07-23T07:22:37;26.00;99.90
2497;DHT22;1259;48.306;14.374;2022-07-23T07:25:07;26.00;99.90
2497;DHT22;1259;48.306;14.374;2022-07-23T07:27:34;26.10;99.90
2497;DHT22;1259;48.306;14.374;2022-07-23T07:30:01;26.10;99.90
2497;DHT22;1259;48.306;14.374;2022-07-23T07:32:28;26.10;99.90
2497;DHT22;1259;48.306;14.374;2022-07-23T07:34:55;26.00;99.90
2497;DHT22;1259;48.306;14.374;2022-07-23T07:37:22;26.10;99.70
2497;DHT22;1259;48.306;14.374;2022-07-23T07:39:49;26.20;99.90
2497;DHT22;1259;48.306;14.374;2022-07-23T07:42:17;26.30;99.90
2497;DHT22;1259;48.306;14.374;2022-07-23T07:44:44;26.40;99.90
2497;DHT22;1259;48.306;14.374;2022-07-23T07:47:11;26.60;99.90
2497;DHT22;1259;48.306;14.374;2022-07-23T07:49:39;26.60;99.90
2497;DHT22;1259;48.306;14.374;2022-07-23T07:52:06;26.90;99.40
2497;DHT22;1259;48.306;14.374;2022-07-23T07:54:33;27.00;99.90
2497;DHT22;1259;48.306;14.374;2022-07-23T07:57:00;26.80;99.60
2497;DHT22;1259;48.306;14.374;2022-07-23T07:59:29;26.80;98.50
2497;DHT22;1259;48.306;14.374;2022-07-23T08:01:55;26.60;98.60
2497;DHT22;1259;48.306;14.374;2022-07-23T08:04:22;26.50;98.20
2497;DHT22;1259;48.306;14.374;2022-07-23T08:06:49;26.50;98.00
2497;DHT22;1259;48.306;14.374;2022-07-23T08:09:16;26.50;97.00
2497;DHT22;1259;48.306;14.374;2022-07-23T08:11:43;26.60;97.10
2497;DHT22;1259;48.306;14.374;2022-07-23T08:14:10;26.50;95.90
2497;DHT22;1259;48.306;14.374;2022-07-23T08:16:39;26.50;95.50
2497;DHT22;1259;48.306;14.374;2022-07-23T08:19:06;26.30;96.30
2497;DHT22;1259;48.306;14.374;2022-07-23T08:21:33;26.50;97.60
2497;DHT22;1259;48.306;14.374;2022-07-23T08:24:01;26.50;97.70
2497;DHT22;1259;48.306;14.374;2022-07-23T08:26:29;26.40;97.00
2497;DHT22;1259;48.306;14.374;2022-07-23T08:28:55;26.60;96.50
2497;DHT22;1259;48.306;14.374;2022-07-23T08:31:22;26.70;97.20
2497;DHT22;1259;48.306;14.374;2022-07-23T08:33:51;26.80;97.40
2497;DHT22;1259;48.306;14.374;2022-07-23T08:36:18;26.70;96.00
2497;DHT22;1259;48.306;14.374;2022-07-23T08:38:46;26.70;95.70
2497;DHT22;1259;48.306;14.374;2022-07-23T08:41:16;26.80;95.90
2497;DHT22;1259;48.306;14.374;2022-07-23T08:43:44;26.90;96.10
2497;DHT22;1259;48.306;14.374;2022-07-23T08:46:12;27.00;97.00
2497;DHT22;1259;48.306;14.374;2022-07-23T08:48:40;27.10;95.90
2497;DHT22;1259;48.306;14.374;2022-07-23T08:51:08;27.00;95.50
2497;DHT22;1259;48.306;14.374;2022-07-23T08:53:36;26.80;95.50
2497;DHT22;1259;48.306;14.374;2022-07-23T08:56:04;26.90;95.40
2497;DHT22;1259;48.306;14.374;2022-07-23T08:58:31;26.80;94.70
2497;DHT22;1259;48.306;14.374;2022-07-23T09:00:59;26.70;94.40
2497;DHT22;1259;48.306;14.374;2022-07-23T09:03:27;26.60;94.10
2497;DHT22;1259;48.306;14.374;2022-07-23T09:05:55;26.50;93.70
2497;DHT22;1259;48.306;14.374;2022-07-23T09:08:27;26.80;94.90
2497;DHT22;1259;48.306;14.374;2022-07-23T09:11:01;26.90;94.30
2497;DHT22;1259;48.306;14.374;2022-07-23T09:13:33;27.20;93.00
2497;DHT22;1259;48.306;14.374;2022-07-23T09:16:03;27.30;95.10
2497;DHT22;1259;48.306;14.374;2022-07-23T09:18:35;27.20;92.40
2497;DHT22;1259;48.306;14.374;2022-07-23T09:21:09;27.20;91.90
2497;DHT22;1259;48.306;14.374;2022-07-23T09:23:42;27.10;92.00
2497;DHT22;1259;48.306;14.374;2022-07-23T09:29:10;27.60;91.90
2497;DHT22;1259;48.306;14.374;2022-07-23T09:31:49;27.60;91.60
2497;DHT22;1259;48.306;14.374;2022-07-23T09:34:19;27.40;92.10
2497;DHT22;1259;48.306;14.374;2022-07-23T09:36:47;27.50;90.70
2497;DHT22;1259;48.306;14.374;2022-07-23T09:39:22;27.60;92.00
2497;DHT22;1259;48.306;14.374;2022-07-23T09:41:51;27.70;92.70
2497;DHT22;1259;48.306;14.374;2022-07-23T09:44:19;27.60;91.70
2497;DHT22;1259;48.306;14.374;2022-07-23T09:46:47;27.70;91.20
2497;DHT22;1259;48.306;14.374;2022-07-23T09:49:18;27.60;90.70
2497;DHT22;1259;48.306;14.374;2022-07-23T09:51:48;27.50;92.10
2497;DHT22;1259;48.306;14.374;2022-07-23T09:54:37;27.50;91.80
2497;DHT22;1259;48.306;14.374;2022-07-23T09:57:07;27.70;91.70
2497;DHT22;1259;48.306;14.374;2022-07-23T09:59:38;27.70;91.10
2497;DHT22;1259;48.306;14.374;2022-07-23T10:02:06;27.80;91.10
2497;DHT22;1259;48.306;14.374;2022-07-23T10:04:34;27.70;91.20
2497;DHT22;1259;48.306;14.374;2022-07-23T10:07:02;27.80;90.40
2497;DHT22;1259;48.306;14.374;2022-07-23T10:09:31;27.80;90.90
2497;DHT22;1259;48.306;14.374;2022-07-23T10:12:01;27.90;88.80
2497;DHT22;1259;48.306;14.374;2022-07-23T10:14:39;28.10;90.70
2497;DHT22;1259;48.306;14.374;2022-07-23T10:17:06;27.80;89.90
2497;DHT22;1259;48.306;14.374;2022-07-23T10:19:34;27.90;90.50
2497;DHT22;1259;48.306;14.374;2022-07-23T10:22:02;28.10;90.80
2497;DHT22;1259;48.306;14.374;2022-07-23T10:24:49;28.20;90.30
2497;DHT22;1259;48.306;14.374;2022-07-23T10:30:38;28.20;87.60
2497;DHT22;1259;48.306;14.374;2022-07-23T10:33:22;28.40;87.20
2497;DHT22;1259;48.306;14.374;2022-07-23T10:35:54;28.40;88.50
2497;DHT22;1259;48.306;14.374;2022-07-23T10:38:27;28.20;85.80
2497;DHT22;1259;48.306;14.374;2022-07-23T10:40:57;28.40;88.00
2497;DHT22;1259;48.306;14.374;2022-07-23T10:43:33;28.40;85.10
2497;DHT22;1259;48.306;14.374;2022-07-23T10:46:20;28.40;85.40
2497;DHT22;1259;48.306;14.374;2022-07-23T10:49:23;28.30;86.50
2497;DHT22;1259;48.306;14.374;2022-07-23T10:52:17;28.50;84.50
2497;DHT22;1259;48.306;14.374;2022-07-23T10:54:49;28.80;88.40
2497;DHT22;1259;48.306;14.374;2022-07-23T10:57:17;28.70;84.80
2497;DHT22;1259;48.306;14.374;2022-07-23T11:00:14;28.80;82.90
2497;DHT22;1259;48.306;14.374;2022-07-23T11:02:44;28.90;85.70
2497;DHT22;1259;48.306;14.374;2022-07-23T11:05:13;28.90;85.60
2497;DHT22;1259;48.306;14.374;2022-07-23T11:08:10;28.70;81.40
2497;DHT22;1259;48.306;14.374;2022-07-23T11:10:40;28.70;85.20
2497;DHT22;1259;48.306;14.374;2022-07-23T11:13:47;28.80;83.80
2497;DHT22;1259;48.306;14.374;2022-07-23T11:16:20;28.90;83.40
2497;DHT22;1259;48.306;14.374;2022-07-23T11:19:05;29.20;84.90
2497;DHT22;1259;48.306;14.374;2022-07-23T11:21:51;29.30;83.00
2497;DHT22;1259;48.306;14.374;2022-07-23T11:24:20;29.20;82.10
2497;DHT22;1259;48.306;14.374;2022-07-23T11:26:53;29.10;81.60
2497;DHT22;1259;48.306;14.374;2022-07-23T11:29:43;29.30;83.30
2497;DHT22;1259;48.306;14.374;2022-07-23T11:32:29;29.30;80.80
2497;DHT22;1259;48.306;14.374;2022-07-23T11:34:57;29.40;82.40
2497;DHT22;1259;48.306;14.374;2022-07-23T11:37:35;29.20;82.20
2497;DHT22;1259;48.306;14.374;2022-07-23T11:40:07;29.20;82.30
2497;DHT22;1259;48.306;14.374;2022-07-23T11:42:37;29.30;82.80
2497;DHT22;1259;48.306;14.374;2022-07-23T11:45:06;29.40;82.50
2497;DHT22;1259;48.306;14.374;2022-07-23T11:47:35;29.30;84.10
2497;DHT22;1259;48.306;14.374;2022-07-23T11:50:05;29.10;83.20
2497;DHT22;1259;48.306;14.374;2022-07-23T11:52:35;29.10;84.10
2497;DHT22;1259;48.306;14.374;2022-07-23T11:55:05;29.00;83.10
2497;DHT22;1259;48.306;14.374;2022-07-23T11:57:33;28.80;84.70
2497;DHT22;1259;48.306;14.374;2022-07-23T12:00:04;28.90;83.50
2497;DHT22;1259;48.306;14.374;2022-07-23T12:02:32;28.80;84.70
2497;DHT22;1259;48.306;14.374;2022-07-23T12:05:00;28.80;85.30
2497;DHT22;1259;48.306;14.374;2022-07-23T12:07:30;28.60;85.20
2497;DHT22;1259;48.306;14.374;2022-07-23T12:09:58;28.80;85.00
2497;DHT22;1259;48.306;14.374;2022-07-23T12:12:26;29.00;86.90
2497;DHT22;1259;48.306;14.374;2022-07-23T12:14:55;29.00;86.10
2497;DHT22;1259;48.306;14.374;2022-07-23T12:17:28;29.00;86.20
2497;DHT22;1259;48.306;14.374;2022-07-23T12:19:56;29.00;85.30
2497;DHT22;1259;48.306;14.374;2022-07-23T12:22:26;29.00;85.70
2497;DHT22;1259;48.306;14.374;2022-07-23T12:25:04;29.00;86.00
2497;DHT22;1259;48.306;14.374;2022-07-23T12:27:31;29.00;85.80
2497;DHT22;1259;48.306;14.374;2022-07-23T12:29:58;29.10;86.60
2497;DHT22;1259;48.306;14.374;2022-07-23T12:32:28;29.10;86.00
2497;DHT22;1259;48.306;14.374;2022-07-23T12:35:06;29.10;86.30
2497;DHT22;1259;48.306;14.374;2022-07-23T12:37:36;29.10;86.80
2497;DHT22;1259;48.306;14.374;2022-07-23T12:40:24;29.30;86.20
2497;DHT22;1259;48.306;14.374;2022-07-23T12:42:52;29.20;85.30
2497;DHT22;1259;48.306;14.374;2022-07-23T12:45:19;29.20;84.90
2497;DHT22;1259;48.306;14.374;2022-07-23T12:48:01;29.40;87.30
2497;DHT22;1259;48.306;14.374;2022-07-23T12:50:43;29.30;85.10
2497;DHT22;1259;48.306;14.374;2022-07-23T12:53:14;29.30;82.60
2497;DHT22;1259;48.306;14.374;2022-07-23T12:55:42;29.30;84.30
2497;DHT22;1259;48.306;14.374;2022-07-23T12:58:12;29.30;85.30
2497;DHT22;1259;48.306;14.374;2022-07-23T13:01:24;29.30;84.60
2497;DHT22;1259;48.306;14.374;2022-07-23T13:04:00;29.40;85.20
2497;DHT22;1259;48.306;14.374;2022-07-23T13:06:28;29.10;87.30
2497;DHT22;1259;48.306;14.374;2022-07-23T13:08:57;29.20;87.10
2497;DHT22;1259;48.306;14.374;2022-07-23T13:11:24;29.30;85.30
2497;DHT22;1259;48.306;14.374;2022-07-23T13:13:52;29.20;83.10
2497;DHT22;1259;48.306;14.374;2022-07-23T13:16:19;29.10;82.80
2497;DHT22;1259;48.306;14.374;2022-07-23T13:18:46;29.00;83.90
2497;DHT22;1259;48.306;14.374;2022-07-23T13:21:13;29.00;82.70
2497;DHT22;1259;48.306;14.374;2022-07-23T13:23:40;29.10;82.40
2497;DHT22;1259;48.306;14.374;2022-07-23T13:26:09;29.30;83.70
2497;DHT22;1259;48.306;14.374;2022-07-23T13:28:36;29.30;81.70
2497;DHT22;1259;48.306;14.374;2022-07-23T13:31:03;29.00;81.00
2497;DHT22;1259;48.306;14.374;2022-07-23T13:33:30;29.00;82.90
2497;DHT22;1259;48.306;14.374;2022-07-23T13:35:57;29.10;81.70
2497;DHT22;1259;48.306;14.374;2022-07-23T13:38:24;29.20;83.50
2497;DHT22;1259;48.306;14.374;2022-07-23T13:40:52;29.30;84.60
2497;DHT22;1259;48.306;14.374;2022-07-23T13:43:22;29.30;85.60
2497;DHT22;1259;48.306;14.374;2022-07-23T13:45:49;29.30;83.70
2497;DHT22;1259;48.306;14.374;2022-07-23T13:48:17;29.30;83.70
2497;DHT22;1259;48.306;14.374;2022-07-23T13:50:45;29.30;82.90
2497;DHT22;1259;48.306;14.374;2022-07-23T13:53:15;29.30;82.40
2497;DHT22;1259;48.306;14.374;2022-07-23T13:55:42;29.50;85.10
2497;DHT22;1259;48.306;14.374;2022-07-23T13:58:10;29.40;82.20
2497;DHT22;1259;48.306;14.374;2022-07-23T14:00:41;29.10;82.60
2497;DHT22;1259;48.306;14.374;2022-07-23T14:03:09;29.10;84.00
2497;DHT22;1259;48.306;14.374;2022-07-23T14:05:36;28.80;83.50
2497;DHT22;1259;48.306;14.374;2022-07-23T14:08:04;28.80;84.60
2497;DHT22;1259;48.306;14.374;2022-07-23T14:10:32;28.80;82.30
2497;DHT22;1259;48.306;14.374;2022-07-23T14:12:59;28.80;84.60
2497;DHT22;1259;48.306;14.374;2022-07-23T14:15:27;28.80;84.60
2497;DHT22;1259;48.306;14.374;2022-07-23T14:17:56;29.00;86.60
2497;DHT22;1259;48.306;14.374;2022-07-23T14:20:23;28.90;85.00
2497;DHT22;1259;48.306;14.374;2022-07-23T14:22:51;28.90;85.20
2497;DHT22;1259;48.306;14.374;2022-07-23T14:25:19;28.80;84.80
2497;DHT22;1259;48.306;14.374;2022-07-23T14:27:46;28.80;84.30
2497;DHT22;1259;48.306;14.374;2022-07-23T14:30:13;28.70;85.10
2497;DHT22;1259;48.306;14.374;2022-07-23T14:32:41;28.70;85.30
2497;DHT22;1259;48.306;14.374;2022-07-23T14:35:12;28.80;86.80
2497;DHT22;1259;48.306;14.374;2022-07-23T14:37:39;28.60;85.80
2497;DHT22;1259;48.306;14.374;2022-07-23T14:40:06;28.60;87.00
2497;DHT22;1259;48.306;14.374;2022-07-23T14:42:33;28.50;85.80
2497;DHT22;1259;48.306;14.374;2022-07-23T14:45:00;28.40;85.00
2497;DHT22;1259;48.306;14.374;2022-07-23T14:47:27;28.30;84.40
2497;DHT22;1259;48.306;14.374;2022-07-23T14:49:54;28.30;83.90
2497;DHT22;1259;48.306;14.374;2022-07-23T14:52:22;28.10;82.80
2497;DHT22;1259;48.306;14.374;2022-07-23T14:54:49;28.30;83.40
2497;DHT22;1259;48.306;14.374;2022-07-23T14:57:16;28.30;83.00
2497;DHT22;1259;48.306;14.374;2022-07-23T14:59:43;28.20;83.30
2497;DHT22;1259;48.306;14.374;2022-07-23T15:02:10;28.30;84.50
2497;DHT22;1259;48.306;14.374;2022-07-23T15:04:37;28.40;83.70
2497;DHT22;1259;48.306;14.374;2022-07-23T15:07:04;28.30;84.00
2497;DHT22;1259;48.306;14.374;2022-07-23T15:09:32;28.40;85.70
2497;DHT22;1259;48.306;14.374;2022-07-23T15:11:59;28.20;84.40
2497;DHT22;1259;48.306;14.374;2022-07-23T15:14:26;28.20;84.70
2497;DHT22;1259;48.306;14.374;2022-07-23T15:16:55;28.20;85.40
2497;DHT22;1259;48.306;14.374;2022-07-23T15:19:21;28.30;85.30
2497;DHT22;1259;48.306;14.374;2022-07-23T15:21:48;28.10;85.40
2497;DHT22;1259;48.306;14.374;2022-07-23T15:24:15;28.20;86.80
2497;DHT22;1259;48.306;14.374;2022-07-23T15:26:44;28.40;86.40
2497;DHT22;1259;48.306;14.374;2022-07-23T15:29:10;28.30;86.60
2497;DHT22;1259;48.306;14.374;2022-07-23T15:31:37;28.10;86.80
2497;DHT22;1259;48.306;14.374;2022-07-23T15:34:04;27.90;88.00
2497;DHT22;1259;48.306;14.374;2022-07-23T15:36:31;27.80;86.20
2497;DHT22;1259;48.306;14.374;2022-07-23T15:38:58;27.80;86.40
2497;DHT22;1259;48.306;14.374;2022-07-23T15:41:25;27.80;86.10
2497;DHT22;1259;48.306;14.374;2022-07-23T15:43:53;27.80;85.60
2497;DHT22;1259;48.306;14.374;2022-07-23T15:46:22;27.70;86.20
2497;DHT22;1259;48.306;14.374;2022-07-23T15:48:50;27.70;86.40
2497;DHT22;1259;48.306;14.374;2022-07-23T15:51:18;27.60;87.00
2497;DHT22;1259;48.306;14.374;2022-07-23T15:53:45;27.70;86.80
2497;DHT22;1259;48.306;14.374;2022-07-23T15:56:12;27.50;87.20
2497;DHT22;1259;48.306;14.374;2022-07-23T15:58:39;27.60;88.00
2497;DHT22;1259;48.306;14.374;2022-07-23T16:01:07;27.60;88.00